KCGI/CGI METAR and TAF weather

Enter ICAO airport designator
Station Type Date Time Source
KCGI METAR 2022/06/25 21:53 UTC NOAA

KCGI 252153Z 24004KT 10SM CLR 36/18 A2995 RMK AO2 SLP136 T03560183


Station Type Date Time Source
KCGI Decoded METAR 2022/06/25 21:53 UTC NOAA

CAPE GIRARDEAU REGIONAL, MO, United States (KCGI) 37-14N 089-35W 102M
Jun 25, 2022 - 05:53 PM EDT / 2022.06.25 2153 UTC
Wind: from the WSW (240 degrees) at 5 MPH (4 KT):0
Visibility: 10 mile(s):0
Sky conditions: clear
Temperature: 96.1 F (35.6 C)
Heat index: 98.8 F (37.1 C):1
Dew Point: 64.9 F (18.3 C)
Relative Humidity: 36%
Pressure (altimeter): 29.95 in. Hg (1014 hPa)
ob: KCGI 252153Z 24004KT 10SM CLR 36/18 A2995 RMK AO2 SLP136 T03560183
cycle: 22

Station Type Date Time Source
KCGI TAF 2022/06/25 18:27 UTC NOAA

TAF KCGI 251725Z 2518/2618 18005KT P6SM FEW060
FM260600 VRB03KT P6SM VCTS SCT040CB
FM261100 00000KT P6SM BKN120
FM261400 34008KT P6SM BKN022

Example: see airport list